• Join FlightAware (Why Join?)
  • Login
  • US Flag 
10:36AM EDT


 

Airport Tracker/Info


-or-


 

Live Flight TrackerFlight Track Log ✈ CTL309 ✈ 24-Apr-2013 ✈ KBKL - KOSU

Flight Track Log - Related Links

Times and Time Zones

All times are in EDT time to prevent confusion due to time zone crossing. See the CTL309 flight status page for this flight to view local times or setup timezone preferences in your user account.

Time Position Orientation Groundspeed Altitude Reporting Facility
EDT Latitude Longitude Course Direction KTS MPH feet Rate Location/Type
09:05PM 41.5158 -81.7028 216° Southwest 89 102 1,300  Level Indianapolis Center
09:06PM 41.5567 -81.6792 23° Northeast 173 199 2,100 840 Climbing Cleveland Center
09:07PM 41.5819 -81.6269 57° Northeast 168 193 3,100 480 Climbing Cleveland Center
09:08PM 41.5722 -81.5711 103° East 210 242 3,100  Level Cleveland Center
09:10PM 41.5097 -81.5481 165° South 195 224 3,100  Level Cleveland Center
09:10PM 41.4642 -81.5281 162° South 191 220 3,200 780 Climbing Cleveland Center
09:11PM 41.3248 -81.8567 216° Southwest  Level FlightAware Approximate
09:12PM 41.4328 -81.5497 207° Southwest 116 133 4,600  Level Cleveland Center
09:12PM 41.4053 -81.5769 217° Southwest 128 147 5,600 780 Climbing Cleveland Center
09:13PM 41.3758 -81.6097 220° Southwest 138 159 6,100 240 Climbing Cleveland Center
09:14PM 41.3400 -81.6478 219° Southwest 172 198 6,100  Level Cleveland Center
09:15PM 41.3042 -81.6861 219° Southwest 171 197 6,100  Level Cleveland Center
09:17PM 41.2642 -81.7350 223° Southwest 170 196 6,100  Level Cleveland Center
09:18PM 41.2242 -81.7842 223° Southwest 172 198 6,100  Level Cleveland Center
09:19PM 41.1839 -81.8303 221° Southwest 173 199 6,100  Level Cleveland Center
09:21PM 41.1192 -81.9006 219° Southwest 171 197 6,100  Level Indianapolis Center
09:22PM 41.0833 -81.9425 221° Southwest 171 197 6,100  Level Indianapolis Center
09:23PM 41.0478 -81.9842 221° Southwest 169 194 6,100  Level Indianapolis Center
09:24PM 41.0136 -82.0258 223° Southwest 166 191 6,100  Level Indianapolis Center
09:25PM 40.9800 -82.0678 223° Southwest 165 190 6,200  Climbing Indianapolis Center
09:26PM 40.9453 -82.1103 223° Southwest 167 192 6,100 -60 Descending Indianapolis Center
09:27PM 40.9106 -82.1511 222° Southwest 167 192 6,100  Level Indianapolis Center
09:28PM 40.8708 -82.1989 222° Southwest 164 189 6,100  Level Indianapolis Center
09:29PM 40.8350 -82.2392 220° Southwest 167 192 6,100  Level Indianapolis Center
09:30PM 40.7992 -82.2783 220° Southwest 166 191 6,100  Level Indianapolis Center
09:31PM 40.7639 -82.3172 220° Southwest 164 189 6,100  Level Indianapolis Center
09:32PM 40.7294 -82.3569 221° Southwest 163 188 6,100  Level Indianapolis Center
09:33PM 40.6950 -82.3944 220° Southwest 161 185 6,100  Level Indianapolis Center
09:34PM 40.6617 -82.4361 223° Southwest 162 186 6,100  Level Indianapolis Center
09:35PM 40.6278 -82.4764 222° Southwest 163 188 6,100  Level Indianapolis Center
09:36PM 40.5925 -82.5153 220° Southwest 163 188 6,200  Climbing Indianapolis Center
09:37PM 40.5558 -82.5544 219° Southwest 166 191 6,100 -60 Descending Indianapolis Center
09:38PM 40.5211 -82.5939 221° Southwest 165 190 6,100  Level Indianapolis Center
09:39PM 40.4844 -82.6328 219° Southwest 167 192 6,100  Level Indianapolis Center
09:40PM 40.4561 -82.6664 222° Southwest 166 191 6,100  Level Indianapolis Center
09:40PM 40.4500 -82.6731 220° Southwest 165 190 6,100  Level Indianapolis Center
09:41PM 40.4153 -82.7125 221° Southwest 164 189 6,100  Level Indianapolis Center
09:42PM 40.3864 -82.7408 217° Southwest 163 188 6,200  Climbing Indianapolis Center
09:42PM 40.3794 -82.7500 225° Southwest 163 188 6,100 -120 Descending Indianapolis Center
09:43PM 40.3522 -82.7806 221° Southwest 166 191 6,100 -300 Level Indianapolis Center
09:43PM 40.3356 -82.7953 214° Southwest 169 194 5,800 -420 Descending Indianapolis Center
09:44PM 40.3119 -82.8225 221° Southwest 174 200 5,700 -300 Descending Indianapolis Center
09:44PM 40.3014 -82.8319 214° Southwest 173 199 5,500 -720 Descending Indianapolis Center
09:45PM 40.2692 -82.8669 220° Southwest 182 209 4,900 -720 Descending Indianapolis Center
09:45PM 40.2611 -82.8744 215° Southwest 181 208 4,800 -1,020 Descending Indianapolis Center
09:46PM 40.2356 -82.9014 219° Southwest 184 212 4,100 -1,380 Descending Indianapolis Center
09:46PM 40.2200 -82.9150 214° Southwest 182 209 3,400 -1,320 Descending Indianapolis Center
09:47PM 40.1775 -82.9547 216° Southwest 192 221 2,400 -1,020 Descending Indianapolis Center
09:48PM 40.1506 -82.9789 214° Southwest 180 207 1,900 -600 Descending Indianapolis Center
09:48PM 40.1364 -82.9953 221° Southwest 184 212 1,700 -360 Descending Indianapolis Center
09:49PM 40.1078 -83.0258 219° Southwest 144 166 1,500 -300 Descending Indianapolis Center
09:50PM 40.0772 -83.0561 217° Southwest 138 159 1,100 -360 Descending Indianapolis Center
09:52PM 40.0667 -83.0667 201° Southwest  Level FlightAware Approximate